createdAt,value
2022-11-06T00:01:47.862Z,47.50
2022-11-06T00:04:14.840Z,45.30
2022-11-06T00:06:50.748Z,44.80
2022-11-06T00:09:21.626Z,44.30
2022-11-06T00:11:50.109Z,45.30
2022-11-06T00:14:18.037Z,44.40
2022-11-06T00:16:46.382Z,43.20
2022-11-06T00:19:13.516Z,42.90
2022-11-06T00:21:40.346Z,43.20
2022-11-06T00:24:08.325Z,67.10
2022-11-06T00:26:36.060Z,44.50
2022-11-06T00:29:04.272Z,46.30
2022-11-06T00:31:35.386Z,45.00
2022-11-06T00:34:03.268Z,44.60
2022-11-06T00:36:30.710Z,42.30
2022-11-06T00:38:58.701Z,41.80
2022-11-06T00:41:26.405Z,42.20
2022-11-06T00:43:58.967Z,42.00
2022-11-06T00:46:26.331Z,42.20
2022-11-06T00:48:54.122Z,40.90
2022-11-06T00:51:25.379Z,42.90
2022-11-06T00:53:59.771Z,41.90
2022-11-06T00:56:27.561Z,42.60
2022-11-06T00:58:54.991Z,42.60
2022-11-06T01:01:27.691Z,40.90
2022-11-06T01:03:57.564Z,41.50
2022-11-06T01:06:26.287Z,40.80
2022-11-06T01:08:53.702Z,43.20
2022-11-06T01:11:28.562Z,42.80
2022-11-06T01:14:00.357Z,46.30
2022-11-06T01:16:27.630Z,43.80
2022-11-06T01:18:55.750Z,45.00
2022-11-06T01:21:26.784Z,44.50
2022-11-06T01:23:55.870Z,43.50
2022-11-06T01:26:37.360Z,44.00
2022-11-06T01:29:07.497Z,45.70
2022-11-06T01:31:35.168Z,44.10
2022-11-06T01:34:03.143Z,42.50
2022-11-06T01:36:30.331Z,43.10
2022-11-06T01:38:59.796Z,42.60
2022-11-06T01:41:35.834Z,42.70
2022-11-06T01:44:09.664Z,43.40
2022-11-06T01:46:36.834Z,44.00
2022-11-06T01:49:08.474Z,45.00
2022-11-06T01:51:58.574Z,44.80
2022-11-06T01:54:27.979Z,47.00
2022-11-06T01:56:56.775Z,48.90
2022-11-06T01:59:28.415Z,47.60
2022-11-06T02:01:55.236Z,48.40
2022-11-06T02:04:27.915Z,49.20
2022-11-06T02:06:56.839Z,51.50
2022-11-06T02:09:25.413Z,52.70
2022-11-06T02:12:05.481Z,53.10
2022-11-06T02:14:40.387Z,54.50
2022-11-06T02:17:30.507Z,54.20
2022-11-06T02:20:06.874Z,56.20
2022-11-06T02:23:08.090Z,57.90
2022-11-06T02:25:34.818Z,56.80
2022-11-06T02:28:09.107Z,57.50
2022-11-06T02:30:43.082Z,58.10
2022-11-06T02:33:14.438Z,58.60
2022-11-06T02:35:57.460Z,61.70
2022-11-06T02:38:29.097Z,59.80
2022-11-06T02:40:58.905Z,60.70
2022-11-06T02:43:42.377Z,61.20
2022-11-06T02:46:22.716Z,60.30
2022-11-06T02:48:54.168Z,62.00
2022-11-06T02:51:28.176Z,62.50
2022-11-06T02:54:00.156Z,62.60
2022-11-06T02:56:31.872Z,62.00
2022-11-06T02:59:03.307Z,61.20
2022-11-06T03:01:36.789Z,63.20
2022-11-06T03:04:08.931Z,60.60
2022-11-06T03:06:37.823Z,59.00
2022-11-06T03:09:12.606Z,59.80
2022-11-06T03:11:39.456Z,58.40
2022-11-06T03:14:23.449Z,56.30
2022-11-06T03:17:00.451Z,59.00
2022-11-06T03:19:35.232Z,58.00
2022-11-06T03:22:10.012Z,56.40
2022-11-06T03:24:58.571Z,57.80
2022-11-06T03:27:57.348Z,57.10
2022-11-06T03:30:24.171Z,57.50
2022-11-06T03:32:53.980Z,55.40
2022-11-06T03:35:26.786Z,56.50
2022-11-06T03:38:15.398Z,56.50
2022-11-06T03:40:47.065Z,55.10
2022-11-06T03:43:17.798Z,56.80
2022-11-06T03:45:47.635Z,57.60
2022-11-06T03:48:20.388Z,58.10
2022-11-06T03:50:51.057Z,58.30
2022-11-06T03:53:35.081Z,57.90
2022-11-06T03:56:12.226Z,57.80
2022-11-06T03:58:42.965Z,57.40
2022-11-06T04:01:12.051Z,56.00
2022-11-06T04:03:56.167Z,55.20
2022-11-06T04:06:41.369Z,54.90
2022-11-06T04:09:30.028Z,54.40
2022-11-06T04:12:17.936Z,56.20
2022-11-06T04:14:48.874Z,56.90
2022-11-06T04:17:16.901Z,56.90
2022-11-06T04:19:49.541Z,57.80
2022-11-06T04:22:28.151Z,57.70
2022-11-06T04:25:52.482Z,58.50
2022-11-06T04:28:42.170Z,57.10
2022-11-06T04:31:11.582Z,56.20
2022-11-06T04:33:50.255Z,54.30
2022-11-06T04:36:41.824Z,52.10
2022-11-06T04:39:17.759Z,50.10
2022-11-06T04:42:03.950Z,50.90
2022-11-06T04:44:37.040Z,51.70
2022-11-06T04:47:07.327Z,49.70
2022-11-06T04:49:37.358Z,48.90
2022-11-06T04:52:08.402Z,48.50
2022-11-06T04:54:35.963Z,49.20
2022-11-06T04:57:03.317Z,48.10
2022-11-06T04:59:34.855Z,48.50
2022-11-06T05:02:01.660Z,49.60
2022-11-06T05:04:28.663Z,49.80
2022-11-06T05:06:55.440Z,51.60
2022-11-06T05:09:22.212Z,51.60
2022-11-06T05:11:48.973Z,51.30
2022-11-06T05:14:15.679Z,47.30
2022-11-06T05:16:42.380Z,48.00
2022-11-06T05:19:09.115Z,49.80
2022-11-06T05:21:54.492Z,73.80
2022-11-06T05:24:21.286Z,50.60
2022-11-06T05:26:48.001Z,50.30
2022-11-06T05:29:15.046Z,52.20
2022-11-06T05:31:41.772Z,52.60
2022-11-06T05:34:08.687Z,53.70
2022-11-06T05:36:35.457Z,55.70
2022-11-06T05:39:03.528Z,58.10
2022-11-06T05:41:30.372Z,59.50
2022-11-06T05:43:57.511Z,60.00
2022-11-06T05:46:47.094Z,63.30
2022-11-06T05:49:11.039Z,63.00
2022-11-06T05:51:37.728Z,79.80
2022-11-06T05:54:04.537Z,62.70
2022-11-06T05:56:31.251Z,64.00
2022-11-06T05:58:57.948Z,64.50
2022-11-06T06:01:24.761Z,64.20
2022-11-06T06:03:51.536Z,68.60
2022-11-06T06:06:19.708Z,68.50
2022-11-06T06:08:46.532Z,70.00
2022-11-06T06:11:13.279Z,71.20
2022-11-06T06:13:40.044Z,72.10
2022-11-06T06:16:07.128Z,74.40
2022-11-06T06:18:33.863Z,77.10
2022-11-06T06:21:00.556Z,80.00
2022-11-06T06:23:27.267Z,83.40
2022-11-06T06:25:53.990Z,85.00
2022-11-06T06:28:20.709Z,85.00
2022-11-06T06:30:47.469Z,86.90
2022-11-06T06:33:14.183Z,87.90
2022-11-06T06:35:40.983Z,87.90
2022-11-06T06:38:07.718Z,86.10
2022-11-06T06:40:34.405Z,84.10
2022-11-06T06:43:01.091Z,81.90
2022-11-06T06:45:27.815Z,80.70
2022-11-06T06:47:54.578Z,96.70
2022-11-06T06:50:21.353Z,78.60
2022-11-06T06:52:48.008Z,77.40
2022-11-06T06:55:14.757Z,73.70
2022-11-06T06:57:41.514Z,73.40
2022-11-06T07:00:08.871Z,71.00
2022-11-06T07:02:36.519Z,70.90
2022-11-06T07:05:03.304Z,70.90
2022-11-06T07:07:30.104Z,91.30
2022-11-06T07:09:56.903Z,64.10
2022-11-06T07:12:23.712Z,60.70
2022-11-06T07:14:50.393Z,63.50
2022-11-06T07:17:17.070Z,63.30
2022-11-06T07:19:43.833Z,61.90
2022-11-06T07:22:10.543Z,57.50
2022-11-06T07:24:37.251Z,56.80
2022-11-06T07:27:04.684Z,57.00
2022-11-06T07:29:31.454Z,57.40
2022-11-06T07:31:58.258Z,56.20
2022-11-06T07:34:25.099Z,58.90
2022-11-06T07:36:51.875Z,56.20
2022-11-06T07:39:18.633Z,56.80
2022-11-06T07:41:45.390Z,52.90
2022-11-06T07:44:13.234Z,52.40
2022-11-06T07:46:39.935Z,49.40
2022-11-06T07:49:06.642Z,45.10
2022-11-06T07:51:33.389Z,46.30
2022-11-06T07:54:00.355Z,38.90
2022-11-06T07:56:27.073Z,38.70
2022-11-06T07:58:53.787Z,35.20
2022-11-06T08:01:20.644Z,30.00
2022-11-06T08:03:47.584Z,29.20
2022-11-06T08:06:14.433Z,28.00
2022-11-06T08:08:41.196Z,24.10
2022-11-06T08:11:10.614Z,22.10
2022-11-06T08:13:38.101Z,23.90
2022-11-06T08:16:06.529Z,22.00
2022-11-06T08:18:33.417Z,23.90
2022-11-06T08:21:00.447Z,23.60
2022-11-06T08:23:27.863Z,20.70
2022-11-06T08:25:59.956Z,21.20
2022-11-06T08:28:27.160Z,17.30
2022-11-06T08:30:54.323Z,18.80
2022-11-06T08:33:22.168Z,17.60
2022-11-06T08:35:49.067Z,15.00
2022-11-06T08:38:16.746Z,7.50
2022-11-06T08:40:43.679Z,2.40
2022-11-06T08:43:11.240Z,1.00
2022-11-06T08:45:40.267Z,1.00
2022-11-06T08:48:07.985Z,1.00
2022-11-06T08:50:36.708Z,1.00
2022-11-06T08:53:06.187Z,1.00
2022-11-06T08:55:34.462Z,1.00
2022-11-06T08:58:01.939Z,1.00
2022-11-06T09:00:29.472Z,1.00
2022-11-06T09:03:05.553Z,1.00
2022-11-06T09:05:32.289Z,1.00
2022-11-06T09:07:59.397Z,1.00
2022-11-06T09:10:27.023Z,1.00
2022-11-06T09:12:53.747Z,1.00
2022-11-06T09:15:20.445Z,1.00
2022-11-06T09:17:49.531Z,1.00
2022-11-06T09:20:18.985Z,1.00
2022-11-06T09:22:46.533Z,1.00
2022-11-06T09:25:14.164Z,1.00
2022-11-06T09:27:53.053Z,1.00
2022-11-06T09:30:23.894Z,1.00
2022-11-06T09:32:59.233Z,1.00
2022-11-06T09:35:27.589Z,1.00
2022-11-06T09:37:54.366Z,1.00
2022-11-06T09:40:28.490Z,1.00
2022-11-06T09:43:10.741Z,1.00
2022-11-06T09:45:41.137Z,1.00
2022-11-06T09:48:10.636Z,1.00
2022-11-06T09:50:58.245Z,1.00
2022-11-06T09:53:43.457Z,1.00
2022-11-06T09:56:13.531Z,1.00
2022-11-06T09:58:43.488Z,1.00
2022-11-06T10:01:27.421Z,1.00
2022-11-06T10:04:02.598Z,1.00
2022-11-06T10:06:29.609Z,1.00
2022-11-06T10:09:01.096Z,1.00
2022-11-06T10:11:48.675Z,1.00
2022-11-06T10:14:48.630Z,1.00
2022-11-06T10:17:43.713Z,1.00
2022-11-06T10:20:27.859Z,1.00
2022-11-06T10:23:07.339Z,1.00
2022-11-06T10:29:32.418Z,1.00
2022-11-06T10:32:49.254Z,1.00
2022-11-06T10:36:18.152Z,1.00
2022-11-06T10:38:49.200Z,1.00
2022-11-06T10:41:21.690Z,1.00
2022-11-06T10:43:55.220Z,1.00
2022-11-06T10:46:38.179Z,1.00
2022-11-06T10:49:19.324Z,1.00
2022-11-06T10:52:04.801Z,1.00
2022-11-06T10:54:58.992Z,1.00
2022-11-06T10:57:45.518Z,1.00
2022-11-06T11:00:15.231Z,1.00
2022-11-06T11:02:55.934Z,1.00
2022-11-06T11:05:25.820Z,1.00
2022-11-06T11:07:52.737Z,1.00
2022-11-06T11:10:31.487Z,1.00
2022-11-06T11:13:06.928Z,1.00
2022-11-06T11:15:42.899Z,1.00
2022-11-06T11:18:30.841Z,1.00
2022-11-06T11:21:08.241Z,1.00
2022-11-06T11:23:35.007Z,1.00
2022-11-06T11:26:24.345Z,1.00
2022-11-06T11:28:56.862Z,1.00
2022-11-06T11:31:35.011Z,1.00
2022-11-06T11:34:14.576Z,1.00
2022-11-06T11:37:08.838Z,1.00
2022-11-06T11:39:40.375Z,1.00
2022-11-06T11:42:16.125Z,1.00
2022-11-06T11:44:42.946Z,1.00
2022-11-06T11:47:23.482Z,1.00
2022-11-06T11:49:50.500Z,1.00
2022-11-06T11:52:21.436Z,1.00
2022-11-06T11:54:53.485Z,1.00
2022-11-06T11:57:26.511Z,1.00
2022-11-06T12:00:01.703Z,1.00
2022-11-06T12:03:04.895Z,1.00
2022-11-06T12:05:38.661Z,1.00
2022-11-06T12:08:45.365Z,1.00
2022-11-06T12:14:32.171Z,1.00
2022-11-06T12:17:22.601Z,1.00
2022-11-06T12:20:16.078Z,1.00
2022-11-06T12:23:01.536Z,1.00
2022-11-06T12:25:39.665Z,1.00
2022-11-06T12:28:21.670Z,1.00
2022-11-06T12:31:10.626Z,1.00
2022-11-06T12:34:09.108Z,1.00
2022-11-06T12:37:00.492Z,1.00
2022-11-06T12:39:37.068Z,1.00
2022-11-06T12:42:14.212Z,1.00
2022-11-06T12:44:41.135Z,1.00
2022-11-06T12:47:39.949Z,1.00
2022-11-06T12:51:33.934Z,1.00
2022-11-06T12:54:39.767Z,1.00
2022-11-06T12:57:40.812Z,1.00
2022-11-06T13:00:23.328Z,1.00
2022-11-06T13:03:00.244Z,1.00
2022-11-06T13:05:33.340Z,1.00
2022-11-06T13:08:16.639Z,1.00
2022-11-06T13:10:46.630Z,1.00
2022-11-06T13:13:21.825Z,1.00
2022-11-06T13:15:51.364Z,1.00
2022-11-06T13:18:52.844Z,1.00
2022-11-06T13:21:28.745Z,1.00
2022-11-06T13:24:10.632Z,1.00
2022-11-06T13:26:37.318Z,1.00
2022-11-06T13:29:08.903Z,1.00
2022-11-06T13:31:44.435Z,1.00
2022-11-06T13:34:21.319Z,1.00
2022-11-06T13:36:48.882Z,1.00
2022-11-06T13:39:22.205Z,1.00
2022-11-06T13:41:48.950Z,1.00
2022-11-06T13:44:16.539Z,1.00
2022-11-06T13:46:51.798Z,1.00
2022-11-06T13:49:35.989Z,1.00
2022-11-06T13:52:21.031Z,1.00
2022-11-06T13:54:54.097Z,1.00
2022-11-06T13:57:55.408Z,1.00
2022-11-06T14:00:22.235Z,1.00
2022-11-06T14:03:00.995Z,1.00
2022-11-06T14:06:05.500Z,1.00
2022-11-06T14:08:49.333Z,1.00
2022-11-06T14:11:25.480Z,1.00
2022-11-06T14:14:05.796Z,1.00
2022-11-06T14:16:37.581Z,1.00
2022-11-06T14:19:06.850Z,1.00
2022-11-06T14:21:36.630Z,1.00
2022-11-06T14:24:28.021Z,1.00
2022-11-06T14:26:55.610Z,1.00
2022-11-06T14:29:28.599Z,1.00
2022-11-06T14:32:06.478Z,1.00
2022-11-06T14:34:35.599Z,1.00
2022-11-06T14:37:30.797Z,1.00
2022-11-06T14:39:58.055Z,1.00
2022-11-06T14:42:36.714Z,1.00
2022-11-06T14:45:21.969Z,1.00
2022-11-06T14:47:55.703Z,1.00
2022-11-06T14:50:40.762Z,1.00
2022-11-06T14:53:37.047Z,1.00
2022-11-06T14:56:09.966Z,1.00
2022-11-06T14:58:47.446Z,1.00
2022-11-06T15:01:16.228Z,1.00
2022-11-06T15:03:50.575Z,1.00
2022-11-06T15:06:17.291Z,1.00
2022-11-06T15:08:46.951Z,1.00
2022-11-06T15:11:47.893Z,1.00
2022-11-06T15:14:14.930Z,1.00
2022-11-06T15:16:49.646Z,1.00
2022-11-06T15:19:24.895Z,1.00
2022-11-06T15:22:18.796Z,1.00
2022-11-06T15:24:55.684Z,1.00
2022-11-06T15:27:27.854Z,1.00
2022-11-06T15:30:00.155Z,1.00
2022-11-06T15:32:33.079Z,1.00
2022-11-06T15:34:59.743Z,1.00
2022-11-06T15:37:41.573Z,1.00
2022-11-06T15:40:23.413Z,1.00
2022-11-06T15:42:50.771Z,1.00
2022-11-06T15:45:17.454Z,1.00
2022-11-06T15:47:54.782Z,1.00
2022-11-06T15:50:43.266Z,1.00
2022-11-06T15:53:22.858Z,1.00
2022-11-06T15:56:03.234Z,1.00
2022-11-06T15:58:31.547Z,1.00
2022-11-06T16:01:00.126Z,1.00
2022-11-06T16:03:31.290Z,1.00
2022-11-06T16:06:02.656Z,1.00
2022-11-06T16:08:31.296Z,1.00
2022-11-06T16:10:58.633Z,1.00
2022-11-06T16:13:26.156Z,1.00
2022-11-06T16:16:03.954Z,1.00
2022-11-06T16:18:35.608Z,1.00
2022-11-06T16:21:10.668Z,1.00
2022-11-06T16:23:51.287Z,1.00
2022-11-06T16:26:48.249Z,1.00
2022-11-06T16:30:03.974Z,1.00
2022-11-06T16:32:39.300Z,1.00
2022-11-06T16:35:36.940Z,1.00
2022-11-06T16:38:39.121Z,1.00
2022-11-06T16:41:02.588Z,1.00
2022-11-06T16:43:29.303Z,1.00
2022-11-06T16:46:08.421Z,1.00
2022-11-06T16:48:41.421Z,1.00
2022-11-06T16:51:28.604Z,1.00
2022-11-06T16:53:59.674Z,1.00
2022-11-06T16:56:31.923Z,1.00
2022-11-06T16:59:09.295Z,1.00
2022-11-06T17:01:42.486Z,1.00
2022-11-06T17:04:24.539Z,1.00
2022-11-06T17:06:53.123Z,1.00
2022-11-06T17:09:22.656Z,1.00
2022-11-06T17:11:57.524Z,1.00
2022-11-06T17:14:24.736Z,1.00
2022-11-06T17:16:54.272Z,1.00
2022-11-06T17:19:21.964Z,1.00
2022-11-06T17:21:50.088Z,1.00
2022-11-06T17:24:35.956Z,1.00
2022-11-06T17:27:03.183Z,1.00
2022-11-06T17:29:29.933Z,1.00
2022-11-06T17:31:56.710Z,1.00
2022-11-06T17:34:23.459Z,1.00
2022-11-06T17:36:50.272Z,1.00
2022-11-06T17:39:16.985Z,1.00
2022-11-06T17:41:43.698Z,1.00
2022-11-06T17:44:13.876Z,1.00
2022-11-06T17:46:42.522Z,1.00
2022-11-06T17:49:16.775Z,1.00
2022-11-06T17:51:50.429Z,1.00
2022-11-06T17:54:19.551Z,1.00
2022-11-06T17:56:46.635Z,1.00
2022-11-06T17:59:14.125Z,1.00
2022-11-06T18:01:41.749Z,1.00
2022-11-06T18:04:08.694Z,1.00
2022-11-06T18:06:35.969Z,1.00
2022-11-06T18:09:05.523Z,1.00
2022-11-06T18:11:32.746Z,1.00
2022-11-06T18:13:59.704Z,1.00
2022-11-06T18:16:29.902Z,1.00
2022-11-06T18:18:57.057Z,1.00
2022-11-06T18:21:24.958Z,1.00
2022-11-06T18:23:51.747Z,1.00
2022-11-06T18:26:21.500Z,1.00
2022-11-06T18:28:48.876Z,1.00
2022-11-06T18:31:25.453Z,1.00
2022-11-06T18:33:52.262Z,1.00
2022-11-06T18:36:18.959Z,1.00
2022-11-06T18:38:45.742Z,1.00
2022-11-06T18:41:30.601Z,1.00
2022-11-06T18:48:09.197Z,1.00
2022-11-06T18:50:44.092Z,1.00
2022-11-06T18:53:10.961Z,1.00
2022-11-06T18:55:48.934Z,1.00
2022-11-06T18:58:16.076Z,1.00
2022-11-06T19:00:43.074Z,1.00
2022-11-06T19:03:09.790Z,1.00
2022-11-06T19:05:36.456Z,1.00
2022-11-06T19:08:03.743Z,2.40
2022-11-06T19:10:32.434Z,5.30
2022-11-06T19:12:59.752Z,14.10
2022-11-06T19:15:26.826Z,15.70
2022-11-06T19:17:54.747Z,15.10
2022-11-06T19:20:22.419Z,22.40
2022-11-06T19:22:52.969Z,23.40
2022-11-06T19:25:20.557Z,18.30
2022-11-06T19:27:48.030Z,27.40
2022-11-06T19:30:15.777Z,33.80
2022-11-06T19:32:42.740Z,48.70
2022-11-06T19:35:09.699Z,60.60
2022-11-06T19:37:38.254Z,78.20
2022-11-06T19:40:06.452Z,86.80
2022-11-06T19:42:33.590Z,91.60
2022-11-06T19:45:00.346Z,91.20
2022-11-06T19:47:32.227Z,94.30
2022-11-06T19:50:14.459Z,98.30
2022-11-06T19:52:50.959Z,98.30
2022-11-06T19:55:27.907Z,99.90
2022-11-06T19:58:07.265Z,93.80
2022-11-06T20:00:33.982Z,96.10
2022-11-06T20:03:00.661Z,97.60
2022-11-06T20:05:27.505Z,98.90
2022-11-06T20:07:54.243Z,99.60
2022-11-06T20:10:20.959Z,99.90
2022-11-06T20:12:47.729Z,98.20
2022-11-06T20:15:15.398Z,98.90
2022-11-06T20:17:44.489Z,98.30
2022-11-06T20:20:11.819Z,98.70
2022-11-06T20:22:38.499Z,97.70
2022-11-06T20:25:05.644Z,97.60
2022-11-06T20:27:32.379Z,95.80
2022-11-06T20:29:59.096Z,93.00
2022-11-06T20:32:25.877Z,90.20
2022-11-06T20:34:52.565Z,78.00
2022-11-06T20:37:19.279Z,66.60
2022-11-06T20:39:46.014Z,73.80
2022-11-06T20:42:12.693Z,70.10
2022-11-06T20:44:39.556Z,57.30
2022-11-06T20:47:06.242Z,48.90
2022-11-06T20:49:33.096Z,42.60
2022-11-06T20:52:13.569Z,45.40
2022-11-06T20:54:46.327Z,41.50
2022-11-06T20:57:15.660Z,38.40
2022-11-06T20:59:42.621Z,33.10
2022-11-06T21:02:11.162Z,41.00
2022-11-06T21:04:38.139Z,33.80
2022-11-06T21:07:05.026Z,30.70
2022-11-06T21:09:32.411Z,30.50
2022-11-06T21:11:59.345Z,27.60
2022-11-06T21:14:26.340Z,24.50
2022-11-06T21:16:54.024Z,17.70
2022-11-06T21:19:20.790Z,16.30
2022-11-06T21:21:47.598Z,11.70
2022-11-06T21:24:14.512Z,12.00
2022-11-06T21:26:41.559Z,3.70
2022-11-06T21:29:10.736Z,4.40
2022-11-06T21:31:48.395Z,1.00
2022-11-06T21:34:16.116Z,1.40
2022-11-06T21:36:42.974Z,1.00
2022-11-06T21:39:13.383Z,1.00
2022-11-06T21:41:40.346Z,1.00
2022-11-06T21:44:20.693Z,1.00
2022-11-06T21:46:47.871Z,1.00
2022-11-06T21:49:14.751Z,1.00
2022-11-06T21:51:41.926Z,1.00
2022-11-06T21:54:31.939Z,1.00
2022-11-06T21:56:58.914Z,1.00
2022-11-06T21:59:27.544Z,1.00
2022-11-06T22:01:54.690Z,1.00
2022-11-06T22:04:22.307Z,1.00
2022-11-06T22:06:49.088Z,1.00
2022-11-06T22:09:24.493Z,1.00
2022-11-06T22:11:55.157Z,1.00
2022-11-06T22:14:21.901Z,1.00
2022-11-06T22:16:48.779Z,1.00
2022-11-06T22:19:17.538Z,1.00
2022-11-06T22:21:44.820Z,1.00
2022-11-06T22:24:13.155Z,1.00
2022-11-06T22:26:40.372Z,1.00
2022-11-06T22:29:10.400Z,1.00
2022-11-06T22:31:37.253Z,1.00
2022-11-06T22:34:04.394Z,1.00
2022-11-06T22:36:31.958Z,1.00
2022-11-06T22:39:00.562Z,1.00
2022-11-06T22:41:27.435Z,1.00
2022-11-06T22:43:58.853Z,1.00
2022-11-06T22:46:26.587Z,1.00
2022-11-06T22:48:53.986Z,1.00
2022-11-06T22:51:26.520Z,1.00
2022-11-06T22:53:53.797Z,1.00
2022-11-06T22:56:22.595Z,1.00
2022-11-06T22:58:54.236Z,1.00
2022-11-06T23:01:23.408Z,1.00
2022-11-06T23:03:50.392Z,1.00
2022-11-06T23:06:17.936Z,1.00
2022-11-06T23:08:47.144Z,1.00
2022-11-06T23:11:24.677Z,1.00
2022-11-06T23:13:52.070Z,1.00
2022-11-06T23:16:43.195Z,1.00
2022-11-06T23:19:12.291Z,1.00
2022-11-06T23:21:39.922Z,2.70
2022-11-06T23:24:07.261Z,1.00
2022-11-06T23:26:34.346Z,1.00
2022-11-06T23:29:01.906Z,1.00
2022-11-06T23:31:29.172Z,1.00
2022-11-06T23:33:56.263Z,1.00
2022-11-06T23:36:23.043Z,1.00
2022-11-06T23:38:53.053Z,1.00
2022-11-06T23:41:38.661Z,1.00
2022-11-06T23:44:05.620Z,1.00
2022-11-06T23:46:34.373Z,1.00
2022-11-06T23:49:01.110Z,1.00
2022-11-06T23:51:28.121Z,1.00
2022-11-06T23:53:55.092Z,1.20
2022-11-06T23:56:21.939Z,1.00
2022-11-06T23:58:48.614Z,1.30
